MOL Gratitude — VRJU7 — position and weather

sailwx.info

Track history (hours):
 
Tides and Currents Weather Stations Pressure Air Temp Water Temp Dewpoint Dewpoint Depression Visibility Wind Speed Wind Dir Waves Ship Positions

MOL Gratitude

Last reported at 2017-Dec-18 00:59 UTC. Time now 2017-Dec-18 01:19 UTC.
Position N 40°41' W 074°09'.

Length 275 m; draft 12.7 m.

Type: Ship (hazmat cat A). MMSI: 477462400.

Date/timePositionNaut miles runAvg speedWind from/ knotsBaromVisibWave heightAir tempDewpointWater temp
2017-Dec-18 00:59N 40°41' W 074°09'0 0.0
2017-Dec-18 00:29N 40°41' W 074°09'0 0.0
2017-Dec-17 23:59N 40°41' W 074°09'0 0.0
2017-Dec-17 23:28N 40°41' W 074°09'0 0.0
2017-Dec-17 22:58N 40°41' W 074°09'0 0.0
2017-Dec-17 22:28N 40°41' W 074°09'1 1.8
2017-Dec-17 22:00N 40°40' W 074°09'2 4.2
2017-Dec-17 21:30N 40°39' W 074°06'3 5.9
2017-Dec-17 21:00N 40°37' W 074°03'611.1
2017-Dec-17 20:30N 40°32' W 074°01'713.2
2017-Dec-17 20:00N 40°29' W 073°53'5 9.3
2017-Dec-17 19:30N 40°27' W 073°48'5 9.8
2017-Dec-17 18:59N 40°27' W 073°41'5 9.8
2017-Dec-17 18:30N 40°27' W 073°35'4913.5
2017-Dec-17 14:54N 40°31' W 072°31'  
2017-Dec-10 15:10N 49°45' W 005°22'315.4
2017-Dec-10 14:58N 49°45' W 005°17'715.2
2017-Dec-10 14:31N 49°45' W 005°06'815.0
2017-Dec-10 13:57N 49°46' W 004°53'714.8
2017-Dec-10 13:29N 49°48' W 004°43'714.7
2017-Dec-10 13:00N 49°49' W 004°32'714.2
2017-Dec-10 12:30N 49°50' W 004°21'613.1
2017-Dec-10 12:01N 49°52' W 004°12'713.6
2017-Dec-10 11:30N 49°56' W 004°03'713.4
2017-Dec-10 11:00N 49°60' W 003°54'713.3
2017-Dec-10 10:30N 50°03' W 003°46'713.0
2017-Dec-10 10:00N 50°07' W 003°38'714.4
2017-Dec-10 09:30N 50°12' W 003°30'918.4
2017-Dec-10 09:00N 50°21' W 003°25'510.8
2017-Dec-10 08:30N 50°26' W 003°26'713.4
2017-Dec-10 08:00N 50°27' W 003°16'713.1
2017-Dec-10 07:30N 50°26' W 003°05'816.3
2017-Dec-10 07:00N 50°26' W 002°53'1020.6
2017-Dec-10 06:30N 50°25' W 002°36'1122.5
2017-Dec-10 06:01N 50°25' W 002°19'1122.6
2017-Dec-10 05:31N 50°25' W 002°01'1222.7
2017-Dec-10 05:00N 50°26' W 001°43'1322.7
2017-Dec-10 04:27N 50°25' W 001°23'1022.2
2017-Dec-10 04:00N 50°25' W 001°08'1121.5
2017-Dec-10 03:30N 50°25' W 000°51'1020.5
2017-Dec-10 03:00N 50°26' W 000°35'1020.3
2017-Dec-10 02:30N 50°28' W 000°19'1019.9
2017-Dec-10 02:00N 50°30' W 000°04'1019.5
2017-Dec-10 01:30N 50°33' E 000°10'1019.8
2017-Dec-10 01:00N 50°36' E 000°25'1020.7
2017-Dec-10 00:30N 50°40' E 000°40'1121.6
2017-Dec-10 00:00N 50°46' E 000°55'1122.8
2017-Dec-09 23:30N 50°52' E 001°10'1223.7
2017-Dec-09 23:01N 50°59' E 001°25'1223.7
2017-Dec-09 22:31N 51°08' E 001°38'1122.8
2017-Dec-09 22:00N 51°17' E 001°49'1121.3
2017-Dec-09 21:30N 51°26' E 001°57'1121.0
2017-Dec-09 21:00N 51°34' E 002°09'1020.5
2017-Dec-09 20:30N 51°41' E 002°20'9420.0
2017-Dec-09 15:48N 52°55' E 003°57'621.1
2017-Dec-09 15:29N 52°59' E 004°05'1221.3
2017-Dec-09 14:54N 53°08' E 004°20'2519.4
2017-Dec-09 13:37N 53°29' E 004°42'214.5
2017-Dec-09 13:29N 53°30' E 004°45'714.6
2017-Dec-09 13:00N 53°33' E 004°55'713.3
2017-Dec-09 12:29N 53°36' E 005°06'714.6
2017-Dec-09 12:00N 53°39' E 005°17'816.7
2017-Dec-09 11:30N 53°41' E 005°31'7718.6
2017-Dec-09 07:21N 54°00' E 007°38'618.5
2017-Dec-09 07:00N 53°54' E 007°43'611.2
2017-Dec-09 06:30N 53°52' E 007°52'714.4
2017-Dec-09 06:00N 53°50' E 008°04'918.0
2017-Dec-09 05:30N 53°44' E 008°14'816.3
2017-Dec-09 05:00N 53°39' E 008°25'510.9
2017-Dec-09 04:30N 53°35' E 008°32'0 0.2
2017-Dec-09 03:58N 53°35' E 008°32'0 0.0
2017-Dec-09 03:28N 53°35' E 008°32'0 0.0
2017-Dec-09 02:58N 53°35' E 008°32'0 0.0
2017-Dec-09 02:28N 53°35' E 008°32'0 0.0
2017-Dec-09 01:56N 53°35' E 008°32'0 0.0
2017-Dec-09 01:27N 53°35' E 008°32'0 0.0
2017-Dec-09 00:57N 53°35' E 008°32'0 0.0
2017-Dec-09 00:30N 53°35' E 008°32'0 0.0
2017-Dec-08 23:59N 53°35' E 008°32'0 0.0
2017-Dec-08 23:29N 53°35' E 008°32'0 0.0
2017-Dec-08 22:59N 53°35' E 008°32'0 0.0
2017-Dec-08 22:29N 53°35' E 008°32'0 0.0
2017-Dec-08 21:59N 53°35' E 008°32'0 0.0
2017-Dec-08 21:29N 53°35' E 008°32'0 0.0
2017-Dec-08 20:59N 53°35' E 008°32'0 0.0
2017-Dec-08 20:29N 53°35' E 008°32'0 0.0
2017-Dec-08 19:59N 53°35' E 008°32'0 0.0
2017-Dec-08 19:29N 53°35' E 008°32'0 0.0
2017-Dec-08 18:59N 53°35' E 008°32'0 0.0
2017-Dec-08 18:29N 53°35' E 008°32'0 0.0
2017-Dec-08 17:59N 53°35' E 008°32'0 0.0
2017-Dec-08 17:29N 53°35' E 008°32'0 0.0
2017-Dec-08 16:59N 53°35' E 008°32'0 0.0
2017-Dec-08 16:29N 53°35' E 008°32'0 0.0
2017-Dec-08 15:59N 53°35' E 008°32'0 0.0
2017-Dec-08 15:29N 53°35' E 008°32'0 0.0
2017-Dec-08 14:59N 53°35' E 008°32'0 0.0
2017-Dec-08 14:29N 53°35' E 008°32'0 0.0
2017-Dec-08 13:59N 53°35' E 008°32'0 0.0
2017-Dec-08 13:29N 53°35' E 008°32'0 0.0
2017-Dec-08 12:59N 53°35' E 008°32'0 0.0
2017-Dec-08 12:29N 53°35' E 008°32'0 0.0
2017-Dec-08 11:59N 53°35' E 008°32'0 0.0
2017-Dec-08 11:28N 53°35' E 008°32'0 0.0
2017-Dec-08 10:58N 53°35' E 008°32'0 0.0
2017-Dec-08 10:28N 53°35' E 008°32'0 0.0
2017-Dec-08 09:58N 53°35' E 008°32'0 0.0
2017-Dec-08 09:28N 53°35' E 008°32'0 0.0
2017-Dec-08 09:00N 53°35' E 008°32'0 0.0
2017-Dec-08 08:30N 53°35' E 008°32'0 0.0
2017-Dec-08 08:00N 53°35' E 008°32'0 0.0
2017-Dec-08 07:30N 53°35' E 008°32'0 0.0
2017-Dec-08 07:00N 53°35' E 008°32'0 0.0
2017-Dec-08 06:30N 53°35' E 008°32'0 0.0
2017-Dec-08 06:00N 53°35' E 008°32'0 0.0
2017-Dec-08 05:30N 53°35' E 008°32'0 0.0
2017-Dec-08 05:00N 53°35' E 008°32'0 0.0
2017-Dec-08 04:30N 53°35' E 008°32'0 0.0
2017-Dec-08 04:00N 53°35' E 008°32'0 0.0
2017-Dec-08 03:30N 53°35' E 008°32'0 0.0
2017-Dec-08 03:00N 53°35' E 008°32'0 0.0
2017-Dec-08 02:29N 53°35' E 008°32'0 0.0
2017-Dec-08 01:59N 53°35' E 008°32'0 0.0
2017-Dec-08 01:29N 53°35' E 008°32'0 0.0
2017-Dec-08 00:59N 53°35' E 008°32'  
Track history (hours):
 
Tides and Currents Weather Stations Pressure Air Temp Water Temp Dewpoint Dewpoint Depression Visibility Wind Speed Wind Dir Waves Ship Positions

MOL Gratitude

Last reported at 2017-Dec-18 00:59 UTC. Time now 2017-Dec-18 01:19 UTC.
Position N 40°41' W 074°09'.

Length 275 m; draft 12.7 m.

Type: Ship (hazmat cat A). MMSI: 477462400.

Date/timePositionNaut miles runAvg speedWind from/ knotsBaromVisibWave heightAir tempDewpointWater temp
2017-Dec-18 00:59N 40°41' W 074°09'0 0.0
2017-Dec-18 00:29N 40°41' W 074°09'0 0.0
2017-Dec-17 23:59N 40°41' W 074°09'0 0.0
2017-Dec-17 23:28N 40°41' W 074°09'0 0.0
2017-Dec-17 22:58N 40°41' W 074°09'0 0.0
2017-Dec-17 22:28N 40°41' W 074°09'1 1.8
2017-Dec-17 22:00N 40°40' W 074°09'2 4.2
2017-Dec-17 21:30N 40°39' W 074°06'3 5.9
2017-Dec-17 21:00N 40°37' W 074°03'611.1
2017-Dec-17 20:30N 40°32' W 074°01'713.2
2017-Dec-17 20:00N 40°29' W 073°53'5 9.3
2017-Dec-17 19:30N 40°27' W 073°48'5 9.8
2017-Dec-17 18:59N 40°27' W 073°41'5 9.8
2017-Dec-17 18:30N 40°27' W 073°35'4913.5
2017-Dec-17 14:54N 40°31' W 072°31'  
2017-Dec-10 15:10N 49°45' W 005°22'315.4
2017-Dec-10 14:58N 49°45' W 005°17'715.2
2017-Dec-10 14:31N 49°45' W 005°06'815.0
2017-Dec-10 13:57N 49°46' W 004°53'714.8
2017-Dec-10 13:29N 49°48' W 004°43'714.7
2017-Dec-10 13:00N 49°49' W 004°32'714.2
2017-Dec-10 12:30N 49°50' W 004°21'613.1
2017-Dec-10 12:01N 49°52' W 004°12'713.6
2017-Dec-10 11:30N 49°56' W 004°03'713.4
2017-Dec-10 11:00N 49°60' W 003°54'713.3
2017-Dec-10 10:30N 50°03' W 003°46'713.0
2017-Dec-10 10:00N 50°07' W 003°38'714.4
2017-Dec-10 09:30N 50°12' W 003°30'918.4
2017-Dec-10 09:00N 50°21' W 003°25'510.8
2017-Dec-10 08:30N 50°26' W 003°26'713.4
2017-Dec-10 08:00N 50°27' W 003°16'713.1
2017-Dec-10 07:30N 50°26' W 003°05'816.3
2017-Dec-10 07:00N 50°26' W 002°53'1020.6
2017-Dec-10 06:30N 50°25' W 002°36'1122.5
2017-Dec-10 06:01N 50°25' W 002°19'1122.6
2017-Dec-10 05:31N 50°25' W 002°01'1222.7
2017-Dec-10 05:00N 50°26' W 001°43'1322.7
2017-Dec-10 04:27N 50°25' W 001°23'1022.2
2017-Dec-10 04:00N 50°25' W 001°08'1121.5
2017-Dec-10 03:30N 50°25' W 000°51'1020.5
2017-Dec-10 03:00N 50°26' W 000°35'1020.3
2017-Dec-10 02:30N 50°28' W 000°19'1019.9
2017-Dec-10 02:00N 50°30' W 000°04'1019.5
2017-Dec-10 01:30N 50°33' E 000°10'1019.8
2017-Dec-10 01:00N 50°36' E 000°25'1020.7
2017-Dec-10 00:30N 50°40' E 000°40'1121.6
2017-Dec-10 00:00N 50°46' E 000°55'1122.8
2017-Dec-09 23:30N 50°52' E 001°10'1223.7
2017-Dec-09 23:01N 50°59' E 001°25'1223.7
2017-Dec-09 22:31N 51°08' E 001°38'1122.8
2017-Dec-09 22:00N 51°17' E 001°49'1121.3
2017-Dec-09 21:30N 51°26' E 001°57'1121.0
2017-Dec-09 21:00N 51°34' E 002°09'1020.5
2017-Dec-09 20:30N 51°41' E 002°20'9420.0
2017-Dec-09 15:48N 52°55' E 003°57'621.1
2017-Dec-09 15:29N 52°59' E 004°05'1221.3
2017-Dec-09 14:54N 53°08' E 004°20'2519.4
2017-Dec-09 13:37N 53°29' E 004°42'214.5
2017-Dec-09 13:29N 53°30' E 004°45'714.6
2017-Dec-09 13:00N 53°33' E 004°55'713.3
2017-Dec-09 12:29N 53°36' E 005°06'714.6
2017-Dec-09 12:00N 53°39' E 005°17'816.7
2017-Dec-09 11:30N 53°41' E 005°31'7718.6
2017-Dec-09 07:21N 54°00' E 007°38'618.5
2017-Dec-09 07:00N 53°54' E 007°43'611.2
2017-Dec-09 06:30N 53°52' E 007°52'714.4
2017-Dec-09 06:00N 53°50' E 008°04'918.0
2017-Dec-09 05:30N 53°44' E 008°14'816.3
2017-Dec-09 05:00N 53°39' E 008°25'510.9
2017-Dec-09 04:30N 53°35' E 008°32'0 0.2
2017-Dec-09 03:58N 53°35' E 008°32'0 0.0
2017-Dec-09 03:28N 53°35' E 008°32'0 0.0
2017-Dec-09 02:58N 53°35' E 008°32'0 0.0
2017-Dec-09 02:28N 53°35' E 008°32'0 0.0
2017-Dec-09 01:56N 53°35' E 008°32'0 0.0
2017-Dec-09 01:27N 53°35' E 008°32'0 0.0
2017-Dec-09 00:57N 53°35' E 008°32'0 0.0
2017-Dec-09 00:30N 53°35' E 008°32'0 0.0
2017-Dec-08 23:59N 53°35' E 008°32'0 0.0
2017-Dec-08 23:29N 53°35' E 008°32'0 0.0
2017-Dec-08 22:59N 53°35' E 008°32'0 0.0
2017-Dec-08 22:29N 53°35' E 008°32'0 0.0
2017-Dec-08 21:59N 53°35' E 008°32'0 0.0
2017-Dec-08 21:29N 53°35' E 008°32'0 0.0
2017-Dec-08 20:59N 53°35' E 008°32'0 0.0
2017-Dec-08 20:29N 53°35' E 008°32'0 0.0
2017-Dec-08 19:59N 53°35' E 008°32'0 0.0
2017-Dec-08 19:29N 53°35' E 008°32'0 0.0
2017-Dec-08 18:59N 53°35' E 008°32'0 0.0
2017-Dec-08 18:29N 53°35' E 008°32'0 0.0
2017-Dec-08 17:59N 53°35' E 008°32'0 0.0
2017-Dec-08 17:29N 53°35' E 008°32'0 0.0
2017-Dec-08 16:59N 53°35' E 008°32'0 0.0
2017-Dec-08 16:29N 53°35' E 008°32'0 0.0
2017-Dec-08 15:59N 53°35' E 008°32'0 0.0
2017-Dec-08 15:29N 53°35' E 008°32'0 0.0
2017-Dec-08 14:59N 53°35' E 008°32'0 0.0
2017-Dec-08 14:29N 53°35' E 008°32'0 0.0
2017-Dec-08 13:59N 53°35' E 008°32'0 0.0
2017-Dec-08 13:29N 53°35' E 008°32'0 0.0
2017-Dec-08 12:59N 53°35' E 008°32'0 0.0
2017-Dec-08 12:29N 53°35' E 008°32'0 0.0
2017-Dec-08 11:59N 53°35' E 008°32'0 0.0
2017-Dec-08 11:28N 53°35' E 008°32'0 0.0
2017-Dec-08 10:58N 53°35' E 008°32'0 0.0
2017-Dec-08 10:28N 53°35' E 008°32'0 0.0
2017-Dec-08 09:58N 53°35' E 008°32'0 0.0
2017-Dec-08 09:28N 53°35' E 008°32'0 0.0
2017-Dec-08 09:00N 53°35' E 008°32'0 0.0
2017-Dec-08 08:30N 53°35' E 008°32'0 0.0
2017-Dec-08 08:00N 53°35' E 008°32'0 0.0
2017-Dec-08 07:30N 53°35' E 008°32'0 0.0
2017-Dec-08 07:00N 53°35' E 008°32'0 0.0
2017-Dec-08 06:30N 53°35' E 008°32'0 0.0
2017-Dec-08 06:00N 53°35' E 008°32'0 0.0
2017-Dec-08 05:30N 53°35' E 008°32'0 0.0
2017-Dec-08 05:00N 53°35' E 008°32'0 0.0
2017-Dec-08 04:30N 53°35' E 008°32'0 0.0
2017-Dec-08 04:00N 53°35' E 008°32'0 0.0
2017-Dec-08 03:30N 53°35' E 008°32'0 0.0
2017-Dec-08 03:00N 53°35' E 008°32'0 0.0
2017-Dec-08 02:29N 53°35' E 008°32'0 0.0
2017-Dec-08 01:59N 53°35' E 008°32'0 0.0
2017-Dec-08 01:29N 53°35' E 008°32'0 0.0
2017-Dec-08 00:59N 53°35' E 008°32'  

Dump ship's entire track history